Mc Girk, Missouri
Current Conditions -  °F | °C
As of 1:53 AM on Thursday 27 Nov 2014 (Local Time) from KJEF Reporting Station
Overcast Overcast  
Wind Chill: -3°   Ceiling: 2500
Heat Index:   Visibility: 10mi
Dew Point: -2°   Wind: 9mph
Humidity: 79%   Direction: 320°NW
Pressure: 30.37"   Gusts: NA
Location:  38.6111°N, 92.4808°W
Report Text: KJEF 270753Z AUTO 32008KT 10SM OVC025 01/M02 A3037 RMK AO2 SLP278 T00111022 $
Loading
Personal Weather Stations






























Interactive Weather Map New forecast layout! Learn more

10-Day Weather Forecast

Advertisements
Track Severe Weather on mobile